Time;durP1;ratioP1;P1;durP2;ratioP2;P2;SDS_P1;SDS_P2;PMS_P1;PMS_P2;Temp;Humidity;BMP_temperature;BMP_pressure;BME280_temperature;BME280_humidity;BME280_pressure;Samples;Min_cycle;Max_cycle;Signal;HPM_P1;HPM_P2
2023/06/07 02:43:37;;;;;;;17.90;5.70;;;;;;;18.65;59.68;99218.09;106891;1304;545282;-43
2023/06/07 02:46:02;;;;;;;9.70;5.80;;;;;;;18.63;59.77;99217.42;107250;1314;22960;-44
2023/06/07 02:48:28;;;;;;;13.20;6.30;;;;;;;18.63;59.88;99221.34;107242;1314;23108;-47
2023/06/07 02:50:53;;;;;;;10.60;5.40;;;;;;;18.65;59.19;99221.89;107344;1313;22253;-46
2023/06/07 02:53:18;;;;;;;10.00;5.90;;;;;;;18.65;59.21;99224.02;107347;1313;22178;-46
2023/06/07 02:55:44;;;;;;;9.40;6.00;;;;;;;18.64;59.08;99224.96;107347;1313;22900;-47
2023/06/07 02:58:09;;;;;;;13.90;6.00;;;;;;;18.63;59.19;99225.91;107277;1311;301244;-44
2023/06/07 03:00:35;;;;;;;11.40;5.70;;;;;;;18.63;59.16;99225.58;107545;1311;22251;-45
2023/06/07 03:03:00;;;;;;;18.40;5.20;;;;;;;18.61;59.01;99225.41;107517;1311;23368;-48
2023/06/07 03:05:26;;;;;;;11.40;5.80;;;;;;;18.62;58.32;99225.35;107530;1311;23164;-45
2023/06/07 03:07:52;;;;;;;18.30;5.70;;;;;;;18.63;57.94;99226.34;107539;1311;22196;-48
2023/06/07 03:10:18;;;;;;;12.60;5.70;;;;;;;18.63;57.79;99227.91;107529;1311;22248;-44
2023/06/07 03:12:43;;;;;;;6.90;5.30;;;;;;;18.64;57.62;99232.60;107541;1311;22226;-48
2023/06/07 03:15:09;;;;;;;8.50;5.10;;;;;;;18.66;57.20;99231.19;107545;1311;22230;-46
2023/06/07 03:17:34;;;;;;;12.10;5.10;;;;;;;18.67;57.11;99234.66;107518;1311;22483;-44
2023/06/07 03:20:00;;;;;;;9.30;5.00;;;;;;;18.69;56.68;99232.52;107504;1311;22303;-46
2023/06/07 03:22:26;;;;;;;10.00;5.10;;;;;;;18.71;56.21;99236.44;107547;1311;23005;-44
2023/06/07 03:24:54;;;;;;;12.10;4.60;;;;;;;18.74;55.93;99236.33;107542;1305;22238;-45
2023/06/07 03:27:23;;;;;;;9.50;4.90;;;;;;;18.74;55.83;99234.51;107563;1311;22438;-47
2023/06/07 03:29:49;;;;;;;9.80;5.10;;;;;;;18.76;55.75;99232.21;107528;1311;22274;-46
2023/06/07 03:32:14;;;;;;;8.70;4.90;;;;;;;18.77;55.51;99234.41;107521;1311;22417;-48
2023/06/07 03:34:41;;;;;;;16.90;5.10;;;;;;;18.79;55.21;99238.47;107544;1311;22224;-48
2023/06/07 03:37:07;;;;;;;12.40;5.50;;;;;;;18.80;55.07;99238.55;107519;1311;22233;-45
2023/06/07 03:39:32;;;;;;;11.60;5.40;;;;;;;18.83;55.01;99240.30;107536;1311;22940;-48
2023/06/07 03:41:59;;;;;;;18.00;5.20;;;;;;;18.86;54.80;99243.30;107548;1309;22842;-44
2023/06/07 03:44:24;;;;;;;11.50;4.70;;;;;;;18.86;54.66;99244.31;107687;1310;22240;-45
2023/06/07 03:46:50;;;;;;;10.10;4.90;;;;;;;18.87;54.53;99243.67;107655;1310;22451;-48
2023/06/07 03:49:15;;;;;;;12.80;5.20;;;;;;;18.91;54.36;99245.45;107655;1309;22895;-50
2023/06/07 03:51:42;;;;;;;10.20;5.20;;;;;;;18.95;54.20;99251.46;107891;1308;22237;-46
2023/06/07 03:54:08;;;;;;;;;;;;;;;18.99;53.75;99253.13;107881;1308;22463;-47
2023/06/07 03:56:33;;;;;;;21.10;4.50;;;;;;;19.02;53.43;99253.72;107833;1308;23100;-47
2023/06/07 03:59:01;;;;;;;10.60;4.70;;;;;;;19.07;53.13;99251.62;107819;1308;24241;-46
2023/06/07 04:01:27;;;;;;;10.60;4.80;;;;;;;19.12;52.55;99250.46;107813;1308;22310;-46
2023/06/07 04:03:52;;;;;;;10.90;4.40;;;;;;;19.20;52.58;99251.92;107810;1308;22879;-45
2023/06/07 04:06:20;;;;;;;15.80;4.80;;;;;;;19.28;52.54;99251.38;107823;1292;22986;-46
2023/06/07 04:08:46;;;;;;;13.00;4.80;;;;;;;19.34;52.03;99250.02;107851;1308;22196;-45
2023/06/07 04:11:12;;;;;;;11.90;4.50;;;;;;;19.41;51.42;99250.65;107859;1308;22239;-47
2023/06/07 04:13:37;;;;;;;9.80;4.50;;;;;;;19.48;51.27;99249.98;107847;1308;22974;-46
2023/06/07 04:16:02;;;;;;;13.10;4.80;;;;;;;19.56;51.19;99247.30;107845;1308;22362;-46
2023/06/07 04:18:28;;;;;;;9.00;4.30;;;;;;;19.64;50.47;99244.32;107806;1308;22406;-47
2023/06/07 04:20:53;;;;;;;13.60;4.20;;;;;;;19.71;50.14;99246.80;107814;1308;24184;-44
2023/06/07 04:23:18;;;;;;;6.50;3.90;;;;;;;19.77;49.52;99244.16;107845;1308;22244;-45
2023/06/07 04:25:43;;;;;;;11.60;4.40;;;;;;;19.83;49.42;99245.70;107824;1308;22962;-48
2023/06/07 04:28:10;;;;;;;7.60;3.90;;;;;;;19.89;48.70;99246.94;107845;1308;23187;-48
2023/06/07 04:30:36;;;;;;;13.90;4.10;;;;;;;19.95;49.00;99245.29;107849;1308;22399;-45
2023/06/07 04:33:03;;;;;;;10.40;4.10;;;;;;;19.99;48.47;99244.96;107874;1308;22262;-48
2023/06/07 04:35:31;;;;;;;16.90;4.40;;;;;;;20.01;48.27;99243.70;107840;1308;22245;-44
2023/06/07 04:37:57;;;;;;;9.30;4.20;;;;;;;20.04;48.15;99248.41;107854;1308;22292;-47
2023/06/07 04:40:23;;;;;;;14.70;3.90;;;;;;;20.08;47.93;99248.30;107850;1308;22263;-47
2023/06/07 04:42:55;;;;;;;7.50;4.30;;;;;;;20.12;48.02;99245.78;107837;1308;22232;-46
2023/06/07 04:45:31;;;;;;;17.10;3.90;;;;;;;20.17;47.61;99245.31;107841;1308;23514;-47
2023/06/07 04:47:58;;;;;;;12.20;3.90;;;;;;;20.19;47.44;99245.53;107858;1308;22243;-47
2023/06/07 04:50:23;;;;;;;9.70;4.30;;;;;;;20.23;47.00;99246.95;107649;1308;22245;-47
2023/06/07 04:52:49;;;;;;;6.40;3.60;;;;;;;20.24;46.88;99243.05;107837;1308;22464;-50
2023/06/07 04:55:15;;;;;;;11.80;4.10;;;;;;;20.26;46.78;99243.25;107831;1308;22526;-46
2023/06/07 04:57:40;;;;;;;10.40;3.50;;;;;;;20.27;46.66;99247.59;107825;1308;22224;-47
2023/06/07 05:00:10;;;;;;;8.20;3.80;;;;;;;20.27;46.16;99246.45;107838;1308;22409;-47
2023/06/07 05:02:41;;;;;;;7.90;3.90;;;;;;;20.30;46.14;99245.00;107846;1308;22213;-48
2023/06/07 05:05:08;;;;;;;7.60;3.90;;;;;;;20.30;45.69;99243.52;107853;1308;22960;-47
2023/06/07 05:07:33;;;;;;;15.60;3.80;;;;;;;20.31;45.76;99242.92;107861;1308;22260;-46
2023/06/07 05:09:59;;;;;;;14.90;4.20;;;;;;;20.32;46.07;99239.02;107855;1308;22223;-47
2023/06/07 05:12:24;;;;;;;16.30;4.20;;;;;;;20.34;46.14;99240.27;107843;1308;22254;-46
2023/06/07 05:14:50;;;;;;;9.60;3.80;;;;;;;20.36;46.08;99239.40;107651;1308;22427;-46
2023/06/07 05:17:19;;;;;;;12.50;4.20;;;;;;;20.39;46.02;99236.33;107826;1308;22307;-46
2023/06/07 05:19:44;;;;;;;8.70;4.00;;;;;;;20.42;45.83;99236.48;107855;1308;22235;-46
2023/06/07 05:22:09;;;;;;;12.50;3.90;;;;;;;20.46;46.05;99238.79;107849;1308;23067;-46
2023/06/07 05:24:35;;;;;;;15.30;4.00;;;;;;;20.51;46.07;99240.44;107839;1308;22224;-46
2023/06/07 05:27:01;;;;;;;12.80;4.00;;;;;;;20.56;45.81;99237.29;107839;1308;22243;-47
2023/06/07 05:29:26;;;;;;;9.40;3.80;;;;;;;20.63;45.76;99240.41;107838;1308;22441;-44
2023/06/07 05:31:51;;;;;;;6.80;3.50;;;;;;;20.69;45.54;99239.20;107840;1308;22231;-46
2023/06/07 05:34:17;;;;;;;12.20;3.90;;;;;;;20.75;45.35;99236.94;107842;1288;22426;-45
2023/06/07 05:36:42;;;;;;;18.70;3.90;;;;;;;20.83;45.24;99241.67;107827;1308;23045;-45
2023/06/07 05:39:07;;;;;;;10.70;3.40;;;;;;;20.91;45.06;99241.05;107834;1308;22250;-47
2023/06/07 05:41:33;;;;;;;12.00;3.60;;;;;;;20.98;44.74;99241.62;107830;1308;22296;-44
2023/06/07 05:43:58;;;;;;;10.80;3.60;;;;;;;21.05;44.87;99243.21;107850;1308;22222;-45
2023/06/07 05:46:23;;;;;;;13.60;3.90;;;;;;;21.12;44.66;99244.69;107859;1308;22854;-44
2023/06/07 05:48:49;;;;;;;12.80;3.50;;;;;;;21.20;44.75;99244.95;107839;1308;22209;-47
2023/06/07 05:51:14;;;;;;;10.00;4.00;;;;;;;21.24;44.52;99242.71;107836;1308;22202;-45
2023/06/07 05:53:39;;;;;;;6.30;4.00;;;;;;;21.31;44.48;99246.79;107841;1308;24204;-46
2023/06/07 05:56:05;;;;;;;15.20;4.90;;;;;;;21.37;44.38;99245.86;107841;1308;22390;-46
2023/06/07 05:58:31;;;;;;;11.00;3.90;;;;;;;21.40;44.10;99245.69;107844;1308;22227;-45
2023/06/07 06:00:58;;;;;;;9.70;3.80;;;;;;;21.44;43.92;99250.83;107847;1308;22400;-46
2023/06/07 06:03:23;;;;;;;10.30;3.80;;;;;;;21.48;44.07;99253.53;107842;1308;22264;-45
2023/06/07 06:05:48;;;;;;;13.60;4.20;;;;;;;21.53;44.15;99249.85;107823;1308;22217;-46
2023/06/07 06:08:15;;;;;;;14.40;4.00;;;;;;;21.59;44.28;99256.36;107864;1308;22217;-44
2023/06/07 06:10:41;;;;;;;7.40;4.10;;;;;;;21.63;44.24;99256.95;107858;1308;22421;-45
2023/06/07 06:13:06;;;;;;;13.40;3.80;;;;;;;21.69;44.08;99259.58;107828;1308;22209;-44
2023/06/07 06:15:32;;;;;;;14.10;3.90;;;;;;;21.75;43.77;99259.71;107863;1308;22681;-46
2023/06/07 06:17:57;;;;;;;9.60;3.40;;;;;;;21.81;43.95;99266.04;107825;1308;22300;-45
2023/06/07 06:20:22;;;;;;;11.20;3.80;;;;;;;21.88;44.12;99267.82;107837;1308;22240;-47
2023/06/07 06:22:48;;;;;;;9.50;3.30;;;;;;;21.94;43.80;99268.69;107674;1288;22373;-48
2023/06/07 06:25:13;;;;;;;8.50;4.00;;;;;;;21.96;43.50;99268.25;107819;1308;22364;-45
2023/06/07 06:27:39;;;;;;;14.40;4.20;;;;;;;21.99;43.49;99267.81;107866;1308;22210;-47
2023/06/07 06:30:05;;;;;;;9.20;3.90;;;;;;;22.04;43.34;99270.31;107872;1308;23219;-45
2023/06/07 06:32:31;;;;;;;11.20;4.00;;;;;;;22.09;43.44;99268.46;107844;1308;22716;-45
2023/06/07 06:34:56;;;;;;;12.80;3.50;;;;;;;22.14;43.25;99270.50;107860;1308;22381;-45
2023/06/07 06:37:21;;;;;;;14.30;3.50;;;;;;;22.17;43.16;99269.31;107856;1308;22225;-45
2023/06/07 06:39:47;;;;;;;9.70;3.00;;;;;;;22.18;42.90;99268.88;107870;1308;23295;-46
2023/06/07 06:42:12;;;;;;;17.30;4.10;;;;;;;22.16;42.81;99271.16;107805;1308;22264;-49
2023/06/07 06:44:38;;;;;;;7.80;3.80;;;;;;;22.19;42.75;99272.67;107855;1308;22550;-47
2023/06/07 06:47:04;;;;;;;6.70;3.50;;;;;;;22.21;42.41;99270.08;107845;1308;22220;-45
2023/06/07 06:49:29;;;;;;;8.10;3.70;;;;;;;22.23;42.31;99268.85;107870;1308;22399;-47
2023/06/07 06:51:55;;;;;;;11.30;3.20;;;;;;;22.26;42.22;99265.70;107863;1308;22236;-46
2023/06/07 06:54:21;;;;;;;11.20;3.50;;;;;;;22.31;42.20;99264.56;107868;1308;22417;-45
2023/06/07 06:56:46;;;;;;;8.70;3.80;;;;;;;22.34;42.26;99260.66;107844;1308;22313;-46
2023/06/07 06:59:11;;;;;;;10.90;3.20;;;;;;;22.36;41.79;99260.20;107873;1308;22200;-45
2023/06/07 07:01:47;;;;;;;13.90;3.50;;;;;;;22.41;41.90;99264.66;107838;1308;22444;-46
2023/06/07 07:04:14;;;;;;;7.50;3.10;;;;;;;22.49;41.82;99268.38;107862;1308;22926;-47
2023/06/07 07:06:40;;;;;;;11.40;3.10;;;;;;;22.49;41.73;99269.58;107834;1308;22379;-47
2023/06/07 07:09:06;;;;;;;7.00;3.40;;;;;;;22.51;41.64;99266.87;107853;1308;23249;-45
2023/06/07 07:11:31;;;;;;;16.40;3.70;;;;;;;22.54;41.41;99266.84;107826;1308;22236;-49
2023/06/07 07:13:56;;;;;;;6.30;3.00;;;;;;;22.59;41.20;99267.27;107816;1308;23351;-44
2023/06/07 07:16:22;;;;;;;9.00;3.70;;;;;;;22.64;41.30;99267.95;107832;1308;22216;-44
2023/06/07 07:18:47;;;;;;;16.10;3.50;;;;;;;22.67;41.42;99270.55;107823;1308;24236;-46
2023/06/07 07:21:12;;;;;;;10.70;3.30;;;;;;;22.69;41.13;99273.54;107864;1308;22906;-47
2023/06/07 07:23:37;;;;;;;8.30;3.80;;;;;;;22.74;41.06;99270.30;107847;1308;22363;-46
2023/06/07 07:26:03;;;;;;;9.10;3.40;;;;;;;22.81;40.98;99274.44;107854;1308;22221;-45
2023/06/07 07:28:28;;;;;;;3.90;3.30;;;;;;;22.87;40.55;99273.08;107855;1308;22380;-46
2023/06/07 07:30:53;;;;;;;4.70;3.00;;;;;;;22.92;40.49;99269.80;107879;1308;22983;-44
2023/06/07 07:33:19;;;;;;;8.70;3.20;;;;;;;22.99;40.61;99265.66;107824;1308;22257;-48
2023/06/07 07:35:44;;;;;;;7.50;3.00;;;;;;;23.06;40.28;99269.79;107854;1308;22274;-45
2023/06/07 07:38:10;;;;;;;7.20;3.10;;;;;;;23.14;39.92;99266.64;107835;1308;23052;-44
2023/06/07 07:40:35;;;;;;;4.90;3.00;;;;;;;23.20;39.67;99268.58;107850;1308;22254;-45
2023/06/07 07:43:00;;;;;;;8.60;3.00;;;;;;;23.26;40.01;99267.69;107847;1302;23638;-45
2023/06/07 07:45:26;;;;;;;8.80;3.00;;;;;;;23.32;39.91;99268.16;107983;1307;22147;-46
2023/06/07 07:47:51;;;;;;;6.60;3.00;;;;;;;23.38;39.40;99265.81;107957;1292;23015;-47
2023/06/07 07:50:16;;;;;;;9.90;3.40;;;;;;;23.44;39.67;99264.23;107990;1307;22428;-46
2023/06/07 07:52:42;;;;;;;7.50;3.40;;;;;;;23.50;39.65;99265.13;107982;1307;22407;-47
2023/06/07 07:55:07;;;;;;;11.90;3.00;;;;;;;23.60;39.12;99267.88;107996;1307;22302;-46
2023/06/07 07:57:32;;;;;;;15.30;3.30;;;;;;;23.67;39.11;99264.02;107977;1307;22239;-46
2023/06/07 07:59:58;;;;;;;8.40;3.10;;;;;;;23.76;38.93;99267.53;108005;1307;23012;-47
2023/06/07 08:02:23;;;;;;;11.00;3.20;;;;;;;23.87;38.94;99268.88;107973;1307;23229;-44
2023/06/07 08:04:48;;;;;;;7.00;3.20;;;;;;;23.96;38.61;99263.89;107983;1307;22212;-47
2023/06/07 08:07:17;;;;;;;10.60;3.20;;;;;;;24.05;38.37;99264.44;108000;1307;22240;-49
2023/06/07 08:09:42;;;;;;;10.40;3.00;;;;;;;24.17;38.22;99269.31;108010;1307;22242;-46
2023/06/07 08:12:08;;;;;;;7.80;2.70;;;;;;;24.27;38.25;99266.51;107989;1307;22375;-49
2023/06/07 08:14:33;;;;;;;10.10;2.80;;;;;;;24.38;37.56;99263.64;108014;1307;23398;-43
2023/06/07 08:16:59;;;;;;;8.30;2.90;;;;;;;24.52;37.70;99266.39;108033;1307;22911;-47
2023/06/07 08:19:26;;;;;;;8.90;3.30;;;;;;;24.64;36.76;99272.89;108003;1307;22387;-44
2023/06/07 08:21:51;;;;;;;;;;;;;;;24.78;36.70;99272.79;108024;1307;23067;-45
2023/06/07 08:24:17;;;;;;;11.80;2.50;;;;;;;24.92;36.29;99273.14;108016;1307;22207;-47
2023/06/07 08:26:45;;;;;;;8.60;2.80;;;;;;;25.04;35.81;99269.35;108000;1307;22239;-47
2023/06/07 08:29:11;;;;;;;8.00;3.00;;;;;;;25.12;35.37;99268.05;108021;1307;23578;-44
2023/06/07 08:31:41;;;;;;;3.30;2.60;;;;;;;25.29;35.38;99270.81;107992;1307;22394;-46
2023/06/07 08:34:07;;;;;;;5.10;2.20;;;;;;;25.47;35.18;99273.19;108037;1307;22309;-43
2023/06/07 08:36:32;;;;;;;5.40;2.70;;;;;;;25.65;35.05;99274.31;108021;1307;22261;-45
2023/06/07 08:38:57;;;;;;;8.40;2.60;;;;;;;25.85;34.33;99273.21;107895;1308;22242;-44
2023/06/07 08:41:22;;;;;;;15.60;3.00;;;;;;;26.01;34.09;99270.57;107843;1308;23199;-46
2023/06/07 08:43:49;;;;;;;9.70;3.00;;;;;;;26.18;33.33;99274.30;107869;1308;22298;-42
2023/06/07 08:46:15;;;;;;;12.10;2.90;;;;;;;26.34;33.32;99269.83;107868;1308;22222;-42
2023/06/07 08:48:41;;;;;;;16.50;3.40;;;;;;;26.54;33.06;99270.05;107854;1308;22222;-42
2023/06/07 08:51:08;;;;;;;7.30;3.00;;;;;;;26.74;33.02;99268.48;107855;1291;22407;-43
2023/06/07 08:53:37;;;;;;;;;;;;;;;26.93;31.64;99270.30;107895;1308;22435;-41
2023/06/07 08:56:03;;;;;;;11.60;3.00;;;;;;;27.12;31.34;99268.63;107837;1308;22398;-42
2023/06/07 08:58:28;;;;;;;11.50;3.30;;;;;;;27.31;31.45;99266.15;107851;1308;22232;-42
2023/06/07 09:00:58;;;;;;;6.40;3.40;;;;;;;27.53;31.21;99266.83;107842;1308;22395;-41
2023/06/07 09:03:23;;;;;;;4.70;2.70;;;;;;;27.76;30.88;99265.63;107853;1308;22497;-44
2023/06/07 09:05:55;;;;;;;13.10;2.90;;;;;;;27.98;30.01;99264.17;107867;1308;22854;-42
2023/06/07 09:08:20;;;;;;;6.40;2.90;;;;;;;28.20;30.25;99266.52;107873;1308;22243;-42
2023/06/07 09:10:45;;;;;;;7.10;2.50;;;;;;;28.41;29.75;99268.98;107854;1308;22230;-44
2023/06/07 09:13:12;;;;;;;14.50;2.80;;;;;;;28.51;28.83;99266.24;107818;1292;22333;-41
2023/06/07 09:15:40;;;;;;;7.90;2.30;;;;;;;28.66;28.52;99268.20;107845;1298;22257;-44
2023/06/07 09:18:05;;;;;;;12.60;2.80;;;;;;;28.71;28.11;99263.10;107869;1298;22447;-42
2023/06/07 09:20:31;;;;;;;5.50;2.50;;;;;;;28.70;28.60;99262.35;107879;1292;22670;-45
2023/06/07 09:23:09;;;;;;;3.20;2.80;;;;;;;28.93;28.21;99261.27;107879;1292;22378;-44
2023/06/07 09:25:35;;;;;;;11.00;3.00;;;;;;;29.34;27.97;99259.45;107869;1295;22375;-45
2023/06/07 09:28:08;;;;;;;10.90;2.80;;;;;;;29.61;27.23;99263.30;107851;1292;22432;-48
2023/06/07 09:30:33;;;;;;;13.40;3.00;;;;;;;29.91;27.13;99266.52;107870;1295;22364;-46
2023/06/07 09:32:58;;;;;;;8.20;2.70;;;;;;;30.11;26.39;99265.33;107882;1295;22989;-47
2023/06/07 09:35:25;;;;;;;5.60;2.40;;;;;;;30.57;26.24;99272.88;107875;1295;22426;-47
2023/06/07 09:37:52;;;;;;;9.10;3.10;;;;;;;31.08;26.00;99263.42;107858;1295;22368;-47
2023/06/07 09:40:18;;;;;;;12.40;3.00;;;;;;;31.53;26.12;99266.84;107835;1292;22458;-46
2023/06/07 09:42:44;;;;;;;11.60;2.80;;;;;;;31.72;24.40;99272.11;107841;1292;23117;-45
2023/06/07 09:45:14;;;;;;;5.90;2.50;;;;;;;31.60;24.53;99273.73;107844;1286;22504;-46
2023/06/07 09:47:42;;;;;;;5.20;2.50;;;;;;;31.27;24.65;99273.55;107875;1295;22253;-45
2023/06/07 09:50:12;;;;;;;7.80;2.60;;;;;;;31.33;24.47;99267.31;107875;1292;22384;-47
2023/06/07 09:52:37;;;;;;;13.40;2.90;;;;;;;31.93;24.09;99263.13;107852;1293;23443;-49
2023/06/07 09:55:03;;;;;;;5.80;2.50;;;;;;;32.58;23.15;99266.64;107908;1295;22223;-48
2023/06/07 09:57:32;;;;;;;4.10;2.60;;;;;;;32.69;22.63;99269.45;107865;1301;22449;-49
2023/06/07 10:00:14;;;;;;;9.60;2.60;;;;;;;32.61;22.54;99270.98;107867;1304;22195;-49
2023/06/07 10:02:43;;;;;;;8.50;2.90;;;;;;;32.25;23.15;99269.41;107818;1301;22875;-48
2023/06/07 10:05:12;;;;;;;7.30;2.60;;;;;;;31.84;23.89;99263.20;107875;1293;22401;-50
2023/06/07 10:07:40;;;;;;;8.40;2.70;;;;;;;31.73;24.06;99259.92;107806;1297;23135;-48
2023/06/07 10:10:07;;;;;;;3.90;2.50;;;;;;;31.83;23.18;99258.46;107826;1292;22364;-50
2023/06/07 10:12:38;;;;;;;7.90;2.50;;;;;;;31.57;23.35;99255.31;107883;1292;23112;-48
2023/06/07 10:15:07;;;;;;;7.10;2.60;;;;;;;31.44;23.84;99249.88;107860;1292;22318;-48
2023/06/07 10:17:59;;;;;;;8.20;3.00;;;;;;;31.16;23.37;99260.29;107830;1292;22226;-50
2023/06/07 10:20:35;;;;;;;8.60;2.60;;;;;;;31.43;24.15;99259.22;107804;1292;24221;-47
2023/06/07 10:23:06;;;;;;;4.50;2.30;;;;;;;31.49;23.72;99256.70;107840;1292;22732;-47
2023/06/07 10:25:41;;;;;;;9.00;2.50;;;;;;;31.24;23.47;99254.25;107832;1292;22424;-49
2023/06/07 10:28:33;;;;;;;10.40;2.80;;;;;;;30.88;23.73;99258.48;107843;1292;22388;-49
2023/06/07 10:31:03;;;;;;;6.10;2.60;;;;;;;30.57;24.41;99256.46;107815;1292;22377;-47
2023/06/07 11:59:36;;;;;;;3.30;2.40;;;;;;;35.47;19.24;99230.76;107915;1286;82903;-38
2023/06/07 12:02:02;;;;;;;7.80;2.50;;;;;;;35.09;19.46;99228.95;108098;1298;22438;-39
2023/06/07 12:04:28;;;;;;;7.10;2.30;;;;;;;35.02;19.70;99230.83;108233;1298;22621;-38
2023/06/07 12:06:54;;;;;;;11.30;2.20;;;;;;;35.27;19.86;99232.20;108227;1301;22289;-38
2023/06/07 12:09:19;;;;;;;7.60;2.20;;;;;;;35.68;19.42;99226.58;108250;1304;23455;-39
2023/06/07 12:11:46;;;;;;;3.80;2.00;;;;;;;35.58;18.97;99222.87;108227;1301;22225;-39
2023/06/07 12:14:12;;;;;;;9.40;2.90;;;;;;;35.68;19.37;99221.23;108199;1294;22248;-39
2023/06/07 12:16:38;;;;;;;6.80;2.20;;;;;;;35.70;18.41;99220.09;108230;1301;23681;-38
2023/06/07 12:19:07;;;;;;;9.20;3.00;;;;;;;35.60;18.61;99210.69;108174;1298;22508;-39
2023/06/07 12:21:32;;;;;;;5.40;2.30;;;;;;;35.33;18.99;99214.16;108158;1298;23157;-39
2023/06/07 12:24:00;;;;;;;4.60;2.50;;;;;;;35.13;19.85;99204.27;108192;1301;23090;-39
2023/06/07 12:26:29;;;;;;;10.80;2.80;;;;;;;35.07;19.93;99203.77;108194;1297;23255;-39
2023/06/07 12:28:55;;;;;;;8.40;2.70;;;;;;;34.70;20.26;99208.77;107992;1301;23143;-39
2023/06/07 12:31:24;;;;;;;7.30;2.50;;;;;;;34.53;20.32;99210.25;108156;1295;22277;-38
2023/06/07 12:33:54;;;;;;;7.30;2.50;;;;;;;34.42;20.60;99209.61;108196;1298;22177;-41
2023/06/07 12:36:21;;;;;;;5.40;2.20;;;;;;;34.44;20.67;99208.33;108185;1304;22272;-41
2023/06/07 12:38:46;;;;;;;4.10;2.20;;;;;;;34.28;20.30;99204.14;108191;1288;22233;-41
2023/06/07 12:41:11;;;;;;;14.00;2.60;;;;;;;34.05;20.50;99194.88;108202;1304;22496;-41
2023/06/07 12:43:37;;;;;;;9.20;2.90;;;;;;;33.89;20.50;99191.62;108183;1301;22422;-41
2023/06/07 12:46:02;;;;;;;9.40;2.70;;;;;;;33.76;20.62;99183.55;108185;1304;22228;-41
2023/06/07 12:48:27;;;;;;;5.70;2.60;;;;;;;33.69;20.96;99180.98;108169;1304;22442;-42
2023/06/07 12:50:52;;;;;;;9.80;2.70;;;;;;;33.55;21.25;99178.57;108202;1301;22213;-41
2023/06/07 12:53:18;;;;;;;5.90;2.90;;;;;;;33.38;21.09;99179.27;108172;1298;22256;-42
2023/06/07 12:55:43;;;;;;;8.60;2.60;;;;;;;33.19;21.20;99175.88;108191;1304;22317;-43
2023/06/07 12:58:09;;;;;;;4.10;2.60;;;;;;;33.09;21.35;99172.77;108180;1304;22416;-44
2023/06/07 13:00:35;;;;;;;12.50;3.00;;;;;;;33.02;21.01;99171.58;108187;1304;22365;-42
2023/06/07 13:03:00;;;;;;;3.90;2.60;;;;;;;32.90;21.37;99174.05;108172;1304;22237;-43
2023/06/07 13:05:26;;;;;;;2.90;2.40;;;;;;;32.86;21.75;99170.39;108157;1304;22412;-43
2023/06/07 13:07:51;;;;;;;6.40;2.50;;;;;;;32.72;21.86;99172.70;108143;1304;22370;-43
2023/06/07 13:10:17;;;;;;;11.20;2.70;;;;;;;32.65;21.74;99163.50;108168;1304;23006;-43
2023/06/07 13:12:43;;;;;;;13.10;2.70;;;;;;;32.55;22.01;99165.33;108132;1301;22285;-42
2023/06/07 13:15:09;;;;;;;14.90;3.00;;;;;;;32.48;21.89;99157.77;108166;1304;22233;-43
2023/06/07 13:17:34;;;;;;;9.90;3.20;;;;;;;32.47;22.28;99157.50;108186;1298;22227;-42
2023/06/07 13:20:00;;;;;;;9.40;2.70;;;;;;;32.47;22.09;99157.91;108173;1304;22949;-42
2023/06/07 13:22:25;;;;;;;5.50;2.60;;;;;;;32.44;22.55;99154.14;108179;1301;22431;-43
2023/06/07 13:24:51;;;;;;;8.50;2.60;;;;;;;32.42;22.50;99150.98;108164;1304;22916;-44
2023/06/07 13:27:16;;;;;;;19.00;2.90;;;;;;;32.40;22.52;99154.54;108176;1298;22317;-45
2023/06/07 13:29:41;;;;;;;6.60;3.00;;;;;;;32.39;21.98;99153.74;108153;1304;22253;-42
2023/06/07 13:32:07;;;;;;;7.60;3.00;;;;;;;32.38;22.32;99155.73;108167;1304;22271;-42
2023/06/07 13:34:32;;;;;;;11.10;2.70;;;;;;;32.39;22.08;99157.56;108169;1304;22432;-42
2023/06/07 13:36:58;;;;;;;9.40;2.90;;;;;;;32.35;21.91;99154.93;108199;1304;22264;-44
2023/06/07 13:39:23;;;;;;;13.30;2.60;;;;;;;32.27;21.87;99149.60;108182;1298;22130;-40
2023/06/07 13:41:48;;;;;;;8.20;2.50;;;;;;;32.19;22.04;99150.54;108175;1304;22385;-42
2023/06/07 13:44:14;;;;;;;4.30;2.30;;;;;;;32.21;22.18;99147.77;108177;1298;22243;-41
2023/06/07 13:46:39;;;;;;;6.90;2.60;;;;;;;32.15;21.93;99143.47;108153;1304;22233;-41
2023/06/07 13:49:05;;;;;;;3.70;2.40;;;;;;;32.11;21.93;99134.48;108141;1304;24113;-42
2023/06/07 13:51:33;;;;;;;10.70;3.50;;;;;;;32.10;22.55;99130.23;108177;1304;22246;-42
2023/06/07 13:53:58;;;;;;;5.70;2.80;;;;;;;32.12;22.71;99129.02;108187;1298;22241;-43
2023/06/07 13:56:24;;;;;;;7.30;3.00;;;;;;;32.20;22.62;99129.23;108209;1304;22242;-42
2023/06/07 13:58:49;;;;;;;6.20;2.60;;;;;;;32.19;22.39;99124.80;108171;1302;23079;-42
2023/06/07 14:01:14;;;;;;;3.40;2.40;;;;;;;32.18;22.43;99127.33;108188;1304;22230;-41
2023/06/07 14:03:40;;;;;;;7.10;2.90;;;;;;;32.16;22.29;99126.39;108192;1304;22288;-42
2023/06/07 14:06:06;;;;;;;9.90;2.70;;;;;;;32.11;22.18;99126.75;108195;1304;22264;-42
2023/06/07 14:08:31;;;;;;;5.90;2.80;;;;;;;32.04;22.56;99119.59;108186;1304;22468;-42
2023/06/07 14:10:57;;;;;;;9.70;2.90;;;;;;;32.03;22.31;99117.17;108164;1304;22305;-43
2023/06/07 14:13:22;;;;;;;7.80;2.90;;;;;;;31.90;22.25;99119.00;108129;1301;22235;-44
2023/06/07 14:15:48;;;;;;;3.80;2.70;;;;;;;31.81;22.44;99124.17;108169;1304;22406;-45
2023/06/07 14:18:13;;;;;;;10.80;2.50;;;;;;;31.63;22.45;99126.34;108178;1301;22235;-45
2023/06/07 14:20:39;;;;;;;6.00;3.10;;;;;;;31.49;22.76;99123.84;108176;1304;22469;-45
2023/06/07 14:23:05;;;;;;;6.80;2.90;;;;;;;31.44;22.70;99118.95;108171;1301;22685;-42
2023/06/07 14:25:30;;;;;;;5.60;2.30;;;;;;;31.43;23.19;99119.50;108235;1303;22244;-45
2023/06/07 14:27:56;;;;;;;6.70;2.80;;;;;;;31.42;23.08;99119.66;108130;1304;22298;-46
2023/06/07 14:30:21;;;;;;;3.70;2.10;;;;;;;31.40;22.69;99114.02;108125;1304;22252;-43
2023/06/07 14:32:47;;;;;;;6.70;3.10;;;;;;;31.34;22.91;99109.39;108140;1304;22237;-45
2023/06/07 14:35:12;;;;;;;11.50;3.20;;;;;;;31.36;23.29;99113.79;108105;1304;22309;-43
2023/06/07 14:37:37;;;;;;;5.40;2.30;;;;;;;31.40;23.31;99119.40;108142;1304;22362;-43
2023/06/07 14:40:03;;;;;;;3.20;2.30;;;;;;;31.44;23.31;99125.30;108134;1304;22238;-42
2023/06/07 14:42:28;;;;;;;7.20;2.40;;;;;;;31.47;23.55;99124.56;108146;1304;22397;-43
2023/06/07 14:44:54;;;;;;;5.60;2.60;;;;;;;31.43;23.52;99128.15;108185;1304;23151;-42
2023/06/07 14:47:20;;;;;;;12.10;3.40;;;;;;;31.36;23.62;99126.41;108188;1304;22256;-43
2023/06/07 14:49:45;;;;;;;6.50;2.80;;;;;;;31.30;23.15;99125.73;108198;1304;22925;-41
2023/06/07 14:52:10;;;;;;;4.20;2.70;;;;;;;31.23;23.01;99122.70;108159;1304;22463;-42
2023/06/07 14:54:36;;;;;;;6.90;2.80;;;;;;;31.20;23.04;99116.34;108174;1304;22545;-41
2023/06/07 14:57:01;;;;;;;14.50;3.50;;;;;;;31.11;22.77;99116.83;108162;1304;22441;-47
2023/06/07 14:59:26;;;;;;;6.30;2.70;;;;;;;31.07;22.71;99119.96;108169;1301;22236;-43
2023/06/07 15:01:52;;;;;;;5.70;3.20;;;;;;;31.07;23.08;99121.48;108190;1304;22244;-43
2023/06/07 15:04:17;;;;;;;9.20;2.70;;;;;;;31.05;22.17;99120.70;108187;1298;22312;-42
2023/06/07 15:06:42;;;;;;;22.00;3.80;;;;;;;31.07;21.97;99120.44;108197;1304;22413;-42
2023/06/07 15:09:08;;;;;;;4.20;2.60;;;;;;;31.07;21.74;99120.64;108203;1299;22185;-43
2023/06/07 15:11:33;;;;;;;11.10;3.30;;;;;;;31.06;22.14;99123.11;108023;1301;23103;-43
2023/06/07 15:13:58;;;;;;;11.60;3.00;;;;;;;31.05;22.06;99121.15;108212;1304;22364;-43
2023/06/07 15:16:24;;;;;;;6.30;3.10;;;;;;;31.10;22.14;99121.58;108207;1304;24253;-42
2023/06/07 15:18:49;;;;;;;6.70;3.10;;;;;;;31.09;22.24;99119.36;108214;1304;23411;-43
2023/06/07 15:21:15;;;;;;;9.10;3.20;;;;;;;31.10;22.42;99122.45;108217;1304;22294;-43
2023/06/07 15:23:40;;;;;;;4.40;2.50;;;;;;;31.12;22.31;99121.98;108221;1304;23103;-42
2023/06/07 15:26:05;;;;;;;6.00;3.20;;;;;;;31.05;22.40;99118.44;108198;1301;23001;-43